Weather at Antonio B. Won Pat International Airport

Public forecast

Using degrees Celsius for public forecast. Weather courtesy of forecast.io.

Current aviation weather report (METAR) for Antonio B. Won Pat International Airport

Report is more than 6 hours old.

2022/11/14 14:54 (retrieved 2 years ago)

PGUM 141454Z 06011KT 6SM BR SCT016 SCT032 BKN045 27/26 A2983 RMK AO2 SLP094 60000 T02670256 58006

Aviation forecast (TAF) for Antonio B. Won Pat International Airport

Forecast is more than 12 hours old.

2023/02/22 18:39 (retrieved 1 year ago)

TAF PGUM 221735Z 2218/2324 07011KT P6SM VCSH FEW020 BKN060 FM222300 07014G24KT P6SM SCT025 BKN070 FM230800 07012KT P6SM FEW015